Tropical Cyclones
[Index]
Season 2017-2018 Tropical Cyclone FAKIR Track Map
Season 2017-2018 Summaries (Operational Data): [AU] [SIO] [SPAC] [SH]
<<- Previous TC | 2017-2018 Season | Next TC ->>

click for intensity scale information  Lat/long Grid: Show Hide

 Date Labels: Show Hide

Operational Tropical Cyclone Data : JTWC Advisories

Name: FAKIR
Number: 1820

15 Apr 2018 12:00 UTC to 26 Apr 2018 12:00 UTC

    date/time    lat    long     hPa   cat  kts
2018-04-15 12    5.4    60.0    1010         15          
2018-04-15 18    6.9    60.8    1010         15          
2018-04-16 00    6.9    60.6    1010         15          
2018-04-16 06    6.9    60.3    1010         15          
2018-04-16 12    6.9    60.0    1010         15          
2018-04-16 18    6.9    59.8    1010         15          
2018-04-17 00    7.0    61.5    1010         15          
2018-04-17 06    7.6    61.1    1009         15          
2018-04-17 12    8.2    60.9    1009         15          
2018-04-17 18    8.6    60.8    1010         15          
2018-04-18 00    9.0    60.7    1010         15          
2018-04-18 06    9.3    60.6    1010         15          
2018-04-18 12    9.7    60.5    1010         15          
2018-04-18 18    9.9    60.2    1010         15          
2018-04-19 00   10.0    59.9    1010         15          
2018-04-19 06    9.6    59.5    1008         20          
2018-04-19 12    9.2    59.1    1007         20          
2018-04-19 18    8.8    58.6    1007         20          
2018-04-20 00    8.5    58.0    1006         20          
2018-04-20 06    7.8    56.5    1007         20          
2018-04-20 12    7.0    54.8    1004         25          
2018-04-20 18    7.1    54.0    1008         25          
2018-04-21 00    7.3    53.2    1007         25          
2018-04-21 06    7.7    52.4    1006         25          
2018-04-21 12    8.1    51.9    1005         25          
2018-04-21 18    8.6    51.2    1008         25          
2018-04-22 00    9.3    50.8    1005         25          
2018-04-22 06   10.1    50.6    1006         25          
2018-04-22 12   11.1    50.6    1004         25          
2018-04-22 18   12.2    51.0    1007         25          
2018-04-23 00   13.3    51.5    1006         25          
2018-04-23 06   14.6    52.1     996    1    35          
2018-04-23 12   16.0    52.9    1003    1    40          
2018-04-23 18   17.6    53.9    1000    2    50          
2018-04-24 00   19.5    55.1     994    2    60          
2018-04-24 06   21.3    56.2     990    3    65          
2018-04-24 12   22.7    57.2     992    2    60          
2018-04-24 18   23.8    58.1     996    2    50          
2018-04-25 00   24.6    59.1     993    1    40          
2018-04-25 06   25.6    59.9    1003    1    35          
2018-04-25 12   26.4    60.6    1005         30          
2018-04-25 18   27.3    61.3    1007         30          
2018-04-26 00   28.0    62.5    1006                     
2018-04-26 06   29.1    65.8    1006                     
2018-04-26 12   30.1    68.8    1004                     
Winds are 10-min average.

Tropical cyclone tracks developed by Michael Bath using operational warnings and advisories and Google Maps.


Document: tropical_cyclone_fakir.htm
Updated: 17 June 2020
[Australian Severe Weather index] [Copyright Notice] [Email Contacts] [Search This Site] [Privacy Policy]


Main Index Home Page Stock Weather Photos Extreme Storms Discussion Storm News and Storm Chasing Reports Tropical Cyclones / Hurricanes / Typhoons Weather Data and Links Wild Fires / Bushfires Weather Observation Techniques Weather Picture Catalogue Tornado Pictures and Reports Stock Video Footage and DVDs for sale